createdAt,value
2022-12-18T00:01:29.632Z,5.68
2022-12-18T00:05:31.370Z,4.85
2022-12-18T00:09:39.580Z,5.10
2022-12-18T00:13:42.860Z,5.50
2022-12-18T00:17:44.576Z,5.05
2022-12-18T00:21:46.233Z,4.82
2022-12-18T00:25:47.850Z,5.40
2022-12-18T00:29:49.981Z,4.50
2022-12-18T00:33:55.412Z,4.70
2022-12-18T00:37:57.222Z,4.75
2022-12-18T00:42:17.423Z,5.25
2022-12-18T00:46:19.078Z,5.15
2022-12-18T00:50:22.629Z,4.78
2022-12-18T00:54:24.475Z,5.18
2022-12-18T00:58:26.260Z,4.60
2022-12-18T01:02:28.140Z,4.62
2022-12-18T01:06:30.759Z,5.37
2022-12-18T01:10:32.365Z,5.43
2022-12-18T01:14:33.992Z,4.68
2022-12-18T01:18:36.422Z,5.28
2022-12-18T01:22:38.121Z,5.18
2022-12-18T01:26:39.882Z,5.15
2022-12-18T01:30:41.503Z,5.72
2022-12-18T01:34:43.165Z,4.68
2022-12-18T01:38:45.358Z,4.60
2022-12-18T01:42:53.811Z,4.90
2022-12-18T01:46:55.968Z,5.82
2022-12-18T01:50:57.624Z,5.18
2022-12-18T01:55:00.963Z,5.22
2022-12-18T01:59:08.815Z,5.32
2022-12-18T02:03:10.700Z,6.05
2022-12-18T02:07:40.543Z,5.50
2022-12-18T02:11:44.936Z,5.78
2022-12-18T02:16:00.908Z,5.70
2022-12-18T02:20:09.260Z,5.25
2022-12-18T02:24:13.940Z,5.03
2022-12-18T02:28:18.743Z,5.68
2022-12-18T02:32:26.621Z,5.37
2022-12-18T02:36:30.446Z,5.72
2022-12-18T02:40:32.722Z,5.10
2022-12-18T02:44:36.269Z,5.20
2022-12-18T02:48:38.445Z,5.12
2022-12-18T02:52:56.663Z,4.57
2022-12-18T02:57:06.487Z,5.55
2022-12-18T03:01:43.696Z,5.25
2022-12-18T03:06:06.539Z,5.07
2022-12-18T03:10:12.734Z,5.10
2022-12-18T03:14:17.450Z,5.37
2022-12-18T03:18:26.913Z,5.12
2022-12-18T03:22:31.749Z,4.87
2022-12-18T03:26:36.180Z,4.87
2022-12-18T03:30:40.846Z,4.78
2022-12-18T03:34:44.731Z,4.70
2022-12-18T03:38:46.417Z,4.35
2022-12-18T03:42:54.940Z,4.35
2022-12-18T03:47:13.554Z,4.28
2022-12-18T03:51:26.137Z,4.15
2022-12-18T03:55:30.383Z,3.90
2022-12-18T03:59:34.246Z,4.40
2022-12-18T04:03:38.345Z,4.25
2022-12-18T04:07:41.249Z,4.10
2022-12-18T04:11:46.206Z,4.22
2022-12-18T04:15:47.913Z,3.97
2022-12-18T04:19:49.675Z,3.70
2022-12-18T04:23:51.303Z,4.20
2022-12-18T04:27:53.030Z,4.32
2022-12-18T04:31:55.190Z,3.85
2022-12-18T04:35:56.862Z,3.70
2022-12-18T04:39:58.537Z,4.10
2022-12-18T04:44:00.230Z,3.75
2022-12-18T04:48:03.036Z,3.50
2022-12-18T04:52:04.809Z,3.25
2022-12-18T04:56:15.124Z,3.00
2022-12-18T05:00:17.003Z,3.50
2022-12-18T05:04:18.715Z,3.75
2022-12-18T05:08:21.593Z,2.95
2022-12-18T05:12:26.132Z,3.30
2022-12-18T05:16:27.827Z,3.08
2022-12-18T05:20:30.079Z,3.03
2022-12-18T05:24:31.760Z,3.15
2022-12-18T05:28:35.269Z,2.95
2022-12-18T05:32:36.954Z,3.08
2022-12-18T05:36:38.703Z,2.65
2022-12-18T05:40:43.500Z,3.42
2022-12-18T05:44:45.396Z,3.45
2022-12-18T05:48:47.205Z,2.70
2022-12-18T05:52:48.869Z,3.50
2022-12-18T05:56:50.602Z,3.05
2022-12-18T06:00:52.226Z,2.85
2022-12-18T06:04:53.843Z,3.05
2022-12-18T06:08:56.166Z,3.28
2022-12-18T06:12:57.807Z,2.70
2022-12-18T06:16:59.455Z,2.95
2022-12-18T06:21:01.461Z,3.10
2022-12-18T06:25:03.394Z,3.05
2022-12-18T06:29:05.497Z,3.35
2022-12-18T06:33:07.601Z,3.35
2022-12-18T06:37:09.220Z,3.30
2022-12-18T06:41:13.901Z,3.60
2022-12-18T06:45:15.711Z,3.30
2022-12-18T06:49:17.439Z,3.35
2022-12-18T06:53:19.067Z,3.92
2022-12-18T06:57:20.702Z,3.70
2022-12-18T07:01:23.004Z,3.72
2022-12-18T07:05:24.755Z,3.95
2022-12-18T07:09:26.391Z,3.95
2022-12-18T07:13:28.526Z,3.85
2022-12-18T07:17:30.459Z,3.78
2022-12-18T07:21:32.154Z,3.92
2022-12-18T07:25:37.884Z,3.95
2022-12-18T07:29:39.547Z,3.30
2022-12-18T07:33:42.125Z,3.92
2022-12-18T07:37:43.901Z,4.20
2022-12-18T07:42:05.601Z,3.92
2022-12-18T07:46:08.257Z,4.35
2022-12-18T07:50:10.442Z,4.65
2022-12-18T07:54:12.092Z,4.12
2022-12-18T07:58:13.811Z,4.87
2022-12-18T08:02:15.667Z,4.35
2022-12-18T08:06:17.479Z,4.72
2022-12-18T08:10:19.526Z,5.12
2022-12-18T08:14:21.177Z,5.22
2022-12-18T08:18:22.798Z,4.85
2022-12-18T08:22:24.535Z,4.90
2022-12-18T08:26:28.070Z,4.93
2022-12-18T08:30:29.721Z,4.78
2022-12-18T08:34:31.614Z,4.68
2022-12-18T08:38:36.890Z,4.72
2022-12-18T08:42:57.154Z,4.50
2022-12-18T08:46:58.887Z,4.80
2022-12-18T08:51:01.145Z,4.40
2022-12-18T08:55:02.772Z,4.55
2022-12-18T08:59:05.251Z,4.20
2022-12-18T09:03:12.776Z,4.47
2022-12-18T09:07:14.396Z,4.72
2022-12-18T09:11:21.907Z,5.05
2022-12-18T09:15:23.550Z,4.68
2022-12-18T09:19:25.431Z,4.25
2022-12-18T09:23:27.077Z,4.43
2022-12-18T09:27:28.709Z,4.53
2022-12-18T09:31:30.291Z,4.18
2022-12-18T09:35:31.967Z,4.20
2022-12-18T09:39:36.752Z,4.62
2022-12-18T09:43:51.079Z,4.50
2022-12-18T09:47:55.213Z,4.80
2022-12-18T09:52:06.175Z,4.22
2022-12-18T09:56:16.478Z,3.92
2022-12-18T10:00:22.430Z,4.45
2022-12-18T10:04:25.489Z,4.40
2022-12-18T10:08:54.320Z,4.05
2022-12-18T10:13:12.830Z,4.62
2022-12-18T10:17:37.270Z,4.68
2022-12-18T10:22:01.154Z,4.37
2022-12-18T10:26:06.996Z,4.45
2022-12-18T10:30:21.646Z,4.55
2022-12-18T10:34:24.408Z,4.95
2022-12-18T10:38:31.379Z,4.93
2022-12-18T10:46:34.677Z,4.90
2022-12-18T10:51:09.586Z,4.82
2022-12-18T10:55:03.511Z,5.00
2022-12-18T10:59:11.089Z,5.00
2022-12-18T11:03:38.570Z,4.82
2022-12-18T11:07:51.866Z,4.55
2022-12-18T11:11:56.299Z,5.03
2022-12-18T11:15:58.740Z,4.93
2022-12-18T11:20:20.647Z,5.18
2022-12-18T11:24:32.189Z,4.80
2022-12-18T11:28:47.930Z,4.87
2022-12-18T11:33:11.186Z,4.97
2022-12-18T11:37:14.573Z,4.87
2022-12-18T11:42:08.495Z,5.47
2022-12-18T11:46:19.613Z,5.12
2022-12-18T11:50:52.272Z,4.78
2022-12-18T11:55:00.723Z,4.87
2022-12-18T11:59:17.433Z,5.93
2022-12-18T12:03:44.784Z,5.70
2022-12-18T12:12:20.897Z,5.47
2022-12-18T12:16:38.513Z,5.55
2022-12-18T12:21:22.182Z,7.10
2022-12-18T12:25:55.818Z,6.32
2022-12-18T12:30:10.472Z,6.03
2022-12-18T12:34:27.296Z,6.35
2022-12-18T12:38:36.416Z,6.12
2022-12-18T12:43:09.131Z,6.45
2022-12-18T12:47:21.687Z,6.95
2022-12-18T12:51:25.004Z,7.03
2022-12-18T12:55:29.253Z,6.45
2022-12-18T12:59:48.931Z,7.20
2022-12-18T13:04:01.912Z,7.12
2022-12-18T13:08:26.737Z,7.43
2022-12-18T13:12:47.562Z,7.50
2022-12-18T13:16:49.627Z,7.50
2022-12-18T13:21:19.771Z,7.47
2022-12-18T13:25:33.622Z,7.87
2022-12-18T13:29:46.897Z,8.02
2022-12-18T13:38:38.841Z,8.35
2022-12-18T13:43:00.099Z,9.15
2022-12-18T13:47:05.105Z,8.15
2022-12-18T13:51:11.730Z,8.20
2022-12-18T13:55:19.592Z,9.00
2022-12-18T13:59:25.183Z,8.93
2022-12-18T14:03:30.063Z,8.57
2022-12-18T14:07:39.596Z,8.88
2022-12-18T14:11:51.789Z,9.00
2022-12-18T14:15:54.610Z,9.32
2022-12-18T14:19:56.878Z,9.05
2022-12-18T14:24:19.745Z,9.10
2022-12-18T14:28:22.952Z,9.32
2022-12-18T14:32:24.979Z,9.13
2022-12-18T14:36:28.608Z,9.27
2022-12-18T14:40:30.308Z,9.73
2022-12-18T14:44:44.203Z,10.02
2022-12-18T14:48:53.205Z,9.15
2022-12-18T14:52:54.915Z,10.75
2022-12-18T14:57:06.944Z,11.88
2022-12-18T15:01:08.676Z,11.43
2022-12-18T15:05:19.025Z,9.90
2022-12-18T15:09:26.146Z,10.30
2022-12-18T15:13:27.943Z,10.23
2022-12-18T15:17:29.742Z,10.25
2022-12-18T15:21:32.480Z,10.50
2022-12-18T15:25:40.474Z,10.70
2022-12-18T15:29:42.107Z,10.88
2022-12-18T15:33:46.957Z,11.98
2022-12-18T15:37:49.391Z,10.55
2022-12-18T15:42:10.057Z,11.05
2022-12-18T15:46:17.151Z,9.90
2022-12-18T15:50:18.895Z,10.43
2022-12-18T15:54:41.741Z,10.50
2022-12-18T15:58:43.468Z,11.57
2022-12-18T16:02:45.334Z,10.93
2022-12-18T16:11:44.837Z,11.50
2022-12-18T16:15:46.563Z,11.12
2022-12-18T16:19:48.218Z,12.25
2022-12-18T16:23:49.860Z,12.40
2022-12-18T16:27:52.725Z,12.32
2022-12-18T16:31:55.858Z,13.82
2022-12-18T16:35:57.438Z,12.70
2022-12-18T16:39:59.144Z,12.95
2022-12-18T16:44:00.959Z,12.95
2022-12-18T16:48:02.601Z,13.15
2022-12-18T16:52:05.618Z,11.68
2022-12-18T16:56:07.345Z,13.62
2022-12-18T17:00:09.677Z,13.50
2022-12-18T17:04:11.368Z,13.73
2022-12-18T17:08:13.045Z,13.73
2022-12-18T17:12:14.634Z,13.98
2022-12-18T17:16:17.412Z,14.38
2022-12-18T17:20:19.158Z,14.52
2022-12-18T17:24:21.823Z,14.13
2022-12-18T17:28:25.861Z,14.43
2022-12-18T17:32:28.006Z,14.00
2022-12-18T17:36:32.136Z,14.90
2022-12-18T17:40:33.779Z,15.15
2022-12-18T17:44:35.515Z,14.87
2022-12-18T17:48:37.394Z,15.93
2022-12-18T17:52:40.114Z,15.93
2022-12-18T17:56:41.867Z,15.65
2022-12-18T18:00:43.539Z,15.63
2022-12-18T18:04:45.151Z,15.10
2022-12-18T18:08:46.915Z,16.95
2022-12-18T18:13:07.101Z,14.68
2022-12-18T18:17:08.723Z,16.02
2022-12-18T18:21:10.412Z,15.95
2022-12-18T18:25:12.320Z,17.25
2022-12-18T18:29:17.835Z,15.68
2022-12-18T18:33:19.455Z,17.10
2022-12-18T18:37:21.122Z,16.67
2022-12-18T18:41:24.541Z,16.83
2022-12-18T18:45:26.315Z,16.02
2022-12-18T18:49:28.277Z,16.25
2022-12-18T18:53:30.511Z,18.15
2022-12-18T18:57:33.567Z,17.17
2022-12-18T19:01:35.433Z,17.20
2022-12-18T19:05:37.222Z,16.55
2022-12-18T19:09:38.893Z,17.33
2022-12-18T19:13:40.831Z,18.08
2022-12-18T19:17:42.850Z,18.35
2022-12-18T19:21:49.954Z,17.17
2022-12-18T19:26:04.252Z,18.40
2022-12-18T19:30:13.682Z,17.60
2022-12-18T19:34:15.434Z,19.08
2022-12-18T19:38:17.094Z,16.70
2022-12-18T19:42:24.921Z,17.30
2022-12-18T19:46:28.384Z,18.50
2022-12-18T19:50:30.094Z,17.55
2022-12-18T19:54:34.530Z,17.37
2022-12-18T19:58:36.732Z,15.85
2022-12-18T20:02:38.712Z,17.62
2022-12-18T20:06:52.561Z,17.33
2022-12-18T20:10:54.287Z,17.02
2022-12-18T20:14:56.316Z,17.45
2022-12-18T20:18:58.481Z,17.37
2022-12-18T20:23:00.275Z,17.10
2022-12-18T20:27:02.556Z,18.08
2022-12-18T20:31:08.092Z,16.83
2022-12-18T20:35:12.103Z,17.12
2022-12-18T20:39:15.086Z,17.83
2022-12-18T20:43:17.606Z,18.48
2022-12-18T20:47:19.338Z,17.30
2022-12-18T20:51:21.900Z,17.65
2022-12-18T20:55:23.536Z,16.25
2022-12-18T20:59:25.914Z,18.05
2022-12-18T21:03:27.779Z,17.27
2022-12-18T21:07:29.454Z,17.58
2022-12-18T21:11:51.702Z,17.10
2022-12-18T21:15:54.870Z,18.05
2022-12-18T21:19:56.775Z,17.55
2022-12-18T21:23:58.705Z,18.05
2022-12-18T21:28:00.441Z,18.20
2022-12-18T21:32:02.899Z,18.23
2022-12-18T21:36:06.357Z,16.48
2022-12-18T21:40:08.857Z,16.85
2022-12-18T21:44:16.081Z,18.52
2022-12-18T21:48:17.750Z,18.50
2022-12-18T21:52:21.591Z,17.58
2022-12-18T21:56:48.672Z,17.35
2022-12-18T22:00:50.463Z,17.30
2022-12-18T22:04:52.086Z,17.75
2022-12-18T22:08:54.831Z,18.23
2022-12-18T22:12:56.727Z,18.12
2022-12-18T22:16:58.655Z,16.73
2022-12-18T22:21:02.921Z,16.45
2022-12-18T22:25:04.797Z,17.95
2022-12-18T22:29:25.341Z,18.35
2022-12-18T22:33:27.344Z,17.60
2022-12-18T22:37:29.051Z,18.48
2022-12-18T22:41:30.717Z,18.00
2022-12-18T22:45:37.367Z,17.70
2022-12-18T22:49:40.084Z,18.42
2022-12-18T22:53:42.560Z,18.33
2022-12-18T22:57:48.725Z,18.33
2022-12-18T23:01:54.523Z,17.92
2022-12-18T23:06:07.475Z,19.27
2022-12-18T23:10:09.437Z,19.25
2022-12-18T23:14:11.728Z,17.87
2022-12-18T23:18:13.374Z,18.45
2022-12-18T23:22:14.983Z,17.30
2022-12-18T23:26:20.377Z,19.08
2022-12-18T23:30:22.026Z,19.17
2022-12-18T23:34:23.817Z,18.33
2022-12-18T23:38:25.434Z,19.52
2022-12-18T23:42:27.088Z,21.20
2022-12-18T23:46:32.219Z,19.65
2022-12-18T23:50:35.650Z,20.67
2022-12-18T23:54:39.227Z,20.05
2022-12-18T23:58:42.300Z,20.37
